createdAt,value
2023-04-29T00:01:02.656Z,100265.94
2023-04-29T00:03:13.957Z,100271.66
2023-04-29T00:05:45.840Z,100269.15
2023-04-29T00:08:00.762Z,100270.06
2023-04-29T00:10:13.663Z,100273.27
2023-04-29T00:12:25.981Z,100270.91
2023-04-29T00:14:36.780Z,100267.67
2023-04-29T00:16:51.143Z,100268.13
2023-04-29T00:19:02.105Z,100271.69
2023-04-29T00:21:14.701Z,100270
2023-04-29T00:23:26.980Z,100266.38
2023-04-29T00:25:38.559Z,100265.9
2023-04-29T00:28:02.400Z,100260.56
2023-04-29T00:30:14.419Z,100259.56
2023-04-29T00:32:27.137Z,100255.7
2023-04-29T00:34:44.958Z,100255.58
2023-04-29T00:36:57.841Z,100248.89
2023-04-29T00:39:09.800Z,100251.69
2023-04-29T00:41:24.999Z,100245.54
2023-04-29T00:43:37.169Z,100240.98
2023-04-29T00:45:48.887Z,100239.11
2023-04-29T00:48:01.429Z,100241.25
2023-04-29T00:50:14.400Z,100240.42
2023-04-29T00:52:28.620Z,100237.09
2023-04-29T00:54:41.176Z,100237.49
2023-04-29T00:56:55.220Z,100236.66
2023-04-29T00:59:09.316Z,100235.74
2023-04-29T01:01:22.034Z,100232.38
2023-04-29T01:03:34.309Z,100231.64
2023-04-29T01:05:46.242Z,100232.8
2023-04-29T01:07:56.820Z,100233.88
2023-04-29T01:10:07.385Z,100232.27
2023-04-29T01:12:19.379Z,100233.14
2023-04-29T01:14:33.668Z,100236.27
2023-04-29T01:16:44.586Z,100238.13
2023-04-29T01:19:00.377Z,100234.98
2023-04-29T01:21:14.823Z,100233.38
2023-04-29T01:23:25.841Z,100235.06
2023-04-29T01:25:37.036Z,100236.71
2023-04-29T01:27:48.936Z,100239.16
2023-04-29T01:30:01.307Z,100238.94
2023-04-29T01:32:11.945Z,100243.38
2023-04-29T01:34:22.396Z,100236.48
2023-04-29T01:36:35.142Z,100233.17
2023-04-29T01:38:46.380Z,100235.3
2023-04-29T01:40:59.166Z,100236.16
2023-04-29T01:43:14.103Z,100234.05
2023-04-29T01:45:25.061Z,100232.56
2023-04-29T01:47:35.374Z,100238.39
2023-04-29T01:49:45.522Z,100237.37
2023-04-29T01:51:56.085Z,100235.05
2023-04-29T01:54:07.168Z,100233.43
2023-04-29T01:56:18.119Z,100232.52
2023-04-29T01:58:29.523Z,100230.48
2023-04-29T02:00:39.553Z,100228.38
2023-04-29T02:02:50.360Z,100227.86
2023-04-29T02:05:01.961Z,100224.31
2023-04-29T02:07:14.598Z,100223.99
2023-04-29T02:09:28.224Z,100224.38
2023-04-29T02:11:39.199Z,100225.66
2023-04-29T02:13:50.604Z,100222.04
2023-04-29T02:16:01.363Z,100221
2023-04-29T02:18:14.502Z,100223.78
2023-04-29T02:20:26.346Z,100219.67
2023-04-29T02:22:36.824Z,100218.46
2023-04-29T02:24:49.663Z,100216.75
2023-04-29T02:27:01.203Z,100218.63
2023-04-29T02:29:20.682Z,100213.81
2023-04-29T02:31:35.851Z,100209.7
2023-04-29T02:33:47.005Z,100212.28
2023-04-29T02:35:59.391Z,100209.02
2023-04-29T02:38:14.101Z,100207.39
2023-04-29T02:40:26.454Z,100204.4
2023-04-29T02:42:38.961Z,100204.02
2023-04-29T02:44:50.441Z,100203.67
2023-04-29T02:47:02.890Z,100204.41
2023-04-29T02:49:13.584Z,100201.86
2023-04-29T02:51:25.301Z,100204.16
2023-04-29T02:53:35.882Z,100198.69
2023-04-29T02:55:47.168Z,100200.58
2023-04-29T02:57:59.764Z,100197.41
2023-04-29T03:00:11.643Z,100199.98
2023-04-29T03:02:22.906Z,100202.45
2023-04-29T03:04:34.929Z,100199.31
2023-04-29T03:06:45.972Z,100196.94
2023-04-29T03:08:56.816Z,100198.41
2023-04-29T03:11:08.554Z,100194.84
2023-04-29T03:13:21.487Z,100194.86
2023-04-29T03:15:32.964Z,100192.02
2023-04-29T03:17:44.722Z,100191.64
2023-04-29T03:19:58.479Z,100190.45
2023-04-29T03:22:10.701Z,100187.66
2023-04-29T03:24:25.593Z,100186.23
2023-04-29T03:26:38.719Z,100187.42
2023-04-29T03:28:52.609Z,100184.36
2023-04-29T03:31:08.052Z,100193.06
2023-04-29T03:33:20.716Z,100194.26
2023-04-29T03:35:37.124Z,100193.66
2023-04-29T03:37:55.996Z,100189.51
2023-04-29T03:40:10.179Z,100185.84
2023-04-29T03:42:23.255Z,100188.34
2023-04-29T03:44:34.736Z,100189.79
2023-04-29T03:46:47.057Z,100191.73
2023-04-29T03:48:59.875Z,100194.16
2023-04-29T03:51:10.353Z,100194.34
2023-04-29T03:53:22.317Z,100194.58
2023-04-29T03:55:33.603Z,100192.47
2023-04-29T03:57:45.532Z,100192.59
2023-04-29T03:59:56.446Z,100194.1
2023-04-29T04:02:13.218Z,100189.71
2023-04-29T04:04:25.231Z,100191.32
2023-04-29T04:06:40.963Z,100186.67
2023-04-29T04:08:56.214Z,100182.43
2023-04-29T04:11:08.838Z,100182.77
2023-04-29T04:13:20.695Z,100178.64
2023-04-29T04:15:35.736Z,100175.91
2023-04-29T04:17:52.660Z,100171.45
2023-04-29T04:23:18.421Z,100161.41
2023-04-29T04:25:32.785Z,100161.36
2023-04-29T04:27:48.307Z,100161.99
2023-04-29T04:30:07.098Z,100161.58
2023-04-29T04:32:21.697Z,100158.72
2023-04-29T04:34:43.368Z,100156.11
2023-04-29T04:36:58.926Z,100153.08
2023-04-29T04:39:11.048Z,100155.73
2023-04-29T04:41:24.690Z,100154.98
2023-04-29T04:43:36.963Z,100155
2023-04-29T04:45:49.053Z,100152.3
2023-04-29T04:48:02.158Z,100156.29
2023-04-29T04:50:13.795Z,100154.23
2023-04-29T04:52:27.158Z,100150.34
2023-04-29T04:54:38.728Z,100152.8
2023-04-29T04:56:51.904Z,100151.17
2023-04-29T04:59:04.284Z,100152.83
2023-04-29T05:01:15.271Z,100152.63
2023-04-29T05:03:26.524Z,100154
2023-04-29T05:05:51.643Z,100152.3
2023-04-29T05:08:06.343Z,100157.66
2023-04-29T05:10:27.104Z,100159.48
2023-04-29T05:12:38.653Z,100157.04
2023-04-29T05:14:49.884Z,100158.16
2023-04-29T05:17:03.870Z,100157.8
2023-04-29T05:19:17.252Z,100155.42
2023-04-29T05:21:32.447Z,100152.3
2023-04-29T05:23:43.001Z,100152.05
2023-04-29T05:25:54.532Z,100149.71
2023-04-29T05:28:08.008Z,100149.45
2023-04-29T05:30:30.627Z,100149.1
2023-04-29T05:32:50.330Z,100146.86
2023-04-29T05:35:04.773Z,100150.83
2023-04-29T05:37:17.560Z,100148.11
2023-04-29T05:39:29.754Z,100141.13
2023-04-29T05:41:47.562Z,100138.18
2023-04-29T05:43:58.780Z,100143.2
2023-04-29T05:46:12.376Z,100144.94
2023-04-29T05:48:26.169Z,100139.73
2023-04-29T05:50:45.384Z,100141.31
2023-04-29T05:52:58.506Z,100144.72
2023-04-29T05:55:14.451Z,100146.13
2023-04-29T05:57:26.063Z,100140.91
2023-04-29T05:59:41.573Z,100143.47
2023-04-29T06:01:56.744Z,100142.89
2023-04-29T06:04:08.459Z,100141.16
2023-04-29T06:06:20.134Z,100140.41
2023-04-29T06:08:30.626Z,100136.28
2023-04-29T06:10:43.776Z,100130.5
2023-04-29T06:12:54.566Z,100133.38
2023-04-29T06:15:07.904Z,100132.78
2023-04-29T06:17:21.000Z,100131.63
2023-04-29T06:19:31.927Z,100133.22
2023-04-29T06:21:49.401Z,100129.22
2023-04-29T06:24:06.031Z,100128.41
2023-04-29T06:26:16.724Z,100124.17
2023-04-29T06:28:35.289Z,100127.59
2023-04-29T06:30:58.889Z,100128.05
2023-04-29T06:33:14.849Z,100123.03
2023-04-29T06:35:26.410Z,100123.52
2023-04-29T06:37:40.064Z,100118.63
2023-04-29T06:39:53.387Z,100120.59
2023-04-29T06:42:15.047Z,100120.41
2023-04-29T06:57:07.587Z,100113.52
2023-04-29T12:20:46.064Z,99958.64
2023-04-29T12:30:00.542Z,99956.92
2023-04-29T12:32:29.352Z,99948.63
2023-04-29T13:28:20.587Z,99905.66
2023-04-29T13:30:35.934Z,99903.04
2023-04-29T13:33:11.574Z,99899.7
2023-04-29T13:35:32.378Z,99899.58
2023-04-29T13:38:08.536Z,99902.17
2023-04-29T13:40:51.610Z,99899.44
2023-04-29T13:43:44.762Z,99895.77
2023-04-29T13:46:07.321Z,99902.28
2023-04-29T13:49:20.347Z,99902.63
2023-04-29T13:53:36.227Z,99906.41
2023-04-29T13:57:11.712Z,99897.73
2023-04-29T14:07:26.105Z,99904.73
2023-04-29T14:23:27.930Z,99907.92
2023-04-29T14:26:17.021Z,99907.88
2023-04-29T14:28:48.830Z,99909.68
2023-04-29T14:31:13.180Z,99901.55
2023-04-29T14:33:33.867Z,99901.4
2023-04-29T14:35:58.448Z,99900.43
2023-04-29T14:38:34.427Z,99894.08
2023-04-29T14:41:08.926Z,99892.03
2023-04-29T14:43:33.721Z,99890.36
2023-04-29T14:45:52.019Z,99890.3
2023-04-29T14:48:11.835Z,99885.63
2023-04-29T14:50:29.483Z,99889.14
2023-04-29T14:52:58.450Z,99891.13
2023-04-29T14:55:44.883Z,99888.11
2023-04-29T14:58:08.202Z,99884.58
2023-04-29T15:00:31.762Z,99892.63
2023-04-29T15:02:53.495Z,99892.63
2023-04-29T15:05:46.629Z,99887.69
2023-04-29T15:08:47.040Z,99890.12
2023-04-29T15:11:32.771Z,99889.98
2023-04-29T15:14:09.965Z,99890.25
2023-04-29T15:16:52.079Z,99891.81
2023-04-29T15:20:08.041Z,99884.41
2023-04-29T15:22:39.025Z,99885.36
2023-04-29T15:25:11.561Z,99891.06
2023-04-29T15:27:36.911Z,99886.14
2023-04-29T15:29:53.923Z,99890.13
2023-04-29T15:32:09.492Z,99889.16
2023-04-29T15:34:32.688Z,99889.22
2023-04-29T15:37:03.164Z,99892.05
2023-04-29T15:39:25.669Z,99892.61
2023-04-29T15:41:48.964Z,99891.89
2023-04-29T15:44:10.675Z,99887.74
2023-04-29T15:46:40.029Z,99881.51
2023-04-29T15:49:27.790Z,99885.39
2023-04-29T15:52:08.543Z,99882.8
2023-04-29T15:54:42.547Z,99877.52
2023-04-29T15:57:39.276Z,99883.1
2023-04-29T16:00:07.075Z,99883.41
2023-04-29T16:02:34.404Z,99885.39
2023-04-29T16:05:38.517Z,99883.88
2023-04-29T16:08:21.291Z,99885.13
2023-04-29T16:58:02.591Z,99914.88
2023-04-29T17:00:18.766Z,99914.91
2023-04-29T17:05:53.884Z,99925.97
2023-04-29T17:08:08.517Z,99930.45
2023-04-29T17:10:25.948Z,99928.03
2023-04-29T17:13:02.602Z,99929.42
2023-04-29T17:18:12.096Z,99929.91
2023-04-29T17:20:29.072Z,99932.83
2023-04-29T17:22:51.614Z,99931.58
2023-04-29T17:25:12.559Z,99932.59
2023-04-29T17:27:30.411Z,99933.22
2023-04-29T17:29:46.726Z,99934
2023-04-29T17:32:08.913Z,99936.94
2023-04-29T17:34:38.616Z,99934.52
2023-04-29T17:36:52.593Z,99933.77
2023-04-29T17:39:19.183Z,99934.7
2023-04-29T17:41:44.994Z,99933.11
2023-04-29T17:44:15.059Z,99930.05
2023-04-29T17:46:46.336Z,99929.19
2023-04-29T17:49:11.778Z,99929.42
2023-04-29T17:51:34.012Z,99925.94
2023-04-29T17:53:56.357Z,99927.3
2023-04-29T17:56:13.938Z,99927.95
2023-04-29T17:58:25.746Z,99931.23
2023-04-29T18:00:38.982Z,99933.7
2023-04-29T18:03:01.015Z,99928.87
2023-04-29T18:05:14.043Z,99929.31
2023-04-29T18:07:37.402Z,99929.86
2023-04-29T18:09:50.658Z,99929.19
2023-04-29T18:12:21.769Z,99927.88
2023-04-29T18:14:49.818Z,99937.59
2023-04-29T18:17:04.437Z,99936.13
2023-04-29T18:19:43.883Z,99938.5
2023-04-29T18:22:00.542Z,99937.56
2023-04-29T18:24:23.538Z,99940.52
2023-04-29T18:26:41.587Z,99936.53
2023-04-29T18:29:00.097Z,99944.59
2023-04-29T18:31:22.678Z,99943.26
2023-04-29T18:33:35.438Z,99950.8
2023-04-29T18:35:59.160Z,99952.02
2023-04-29T18:38:18.921Z,99956.14
2023-04-29T18:40:33.621Z,99954.86
2023-04-29T18:42:55.195Z,99956.38
2023-04-29T18:45:15.818Z,99955.67
2023-04-29T18:47:28.649Z,99957.02
2023-04-29T18:49:47.015Z,99962.83
2023-04-29T18:52:11.359Z,99960.59
2023-04-29T18:54:24.517Z,99964.28
2023-04-29T18:56:43.681Z,99964.73
2023-04-29T18:59:00.420Z,99969.22
2023-04-29T19:01:16.389Z,99969.8
2023-04-29T19:03:33.958Z,99975.19
2023-04-29T19:05:59.735Z,99973.76
2023-04-29T19:08:16.695Z,99976.66
2023-04-29T19:10:44.435Z,99974.23
2023-04-29T19:13:09.656Z,99973.04
2023-04-29T19:15:39.283Z,99973.48
2023-04-29T19:17:54.751Z,99970.04
2023-04-29T19:20:13.377Z,99967.83
2023-04-29T19:22:57.197Z,99973.34
2023-04-29T19:25:27.718Z,99975.94
2023-04-29T19:27:51.779Z,99976.27
2023-04-29T19:30:11.958Z,99975.95
2023-04-29T19:32:40.569Z,99979.09
2023-04-29T19:35:22.622Z,99977.39
2023-04-29T19:37:48.915Z,99977.64
2023-04-29T19:40:14.943Z,99978.95
2023-04-29T19:42:31.222Z,99978.43
2023-04-29T19:44:51.781Z,99977.44
2023-04-29T19:47:24.680Z,99981.29
2023-04-29T19:50:00.003Z,99981.26
2023-04-29T19:52:30.839Z,99980.13
2023-04-29T19:54:59.708Z,99983.84
2023-04-29T19:57:21.684Z,99978.25
2023-04-29T19:59:41.317Z,99977.95
2023-04-29T20:01:57.065Z,99978.69
2023-04-29T20:04:46.427Z,99978.84
2023-04-29T20:07:18.158Z,99975.95
2023-04-29T20:10:07.160Z,99980.64
2023-04-29T20:39:29.542Z,99976.73
2023-04-29T20:42:33.678Z,99977.56
2023-04-29T20:56:55.985Z,99974.78
2023-04-29T22:17:01.543Z,99994.66
2023-04-29T22:26:26.795Z,99993.73
2023-04-29T22:29:32.236Z,99991.07
2023-04-29T22:32:23.058Z,99993.59
